Airport View

Enter AWOS ICAO identifier for current METAR.

ex. KFNL

KASL 251115Z AUTO 08003KT 10SM OVC004 12/10 A3003 RMK AO1 T01150101

25 Oct 2020 11:41

Frequency: 118.675

Phone: 903-938-2060

Other Area AWOS: KGGG - KSHV - KDTN - KBAD

TAF KGGG 250541Z 2506/2606 09004KT P6SM OVC010 TEMPO 2509/2513 6SM BR OVC007 FM251300 11005KT P6SM OVC015 FM252100 14007KT P6SM BKN025 FM260300 11006KT P6SM OVC012